sensor_id;sensor_type;location;lat;lon;timestamp;temperature;humidity
37456;DHT22;23316;50.718;7.328;2022-07-01T00:00:47;16.90;70.40
37456;DHT22;23316;50.718;7.328;2022-07-01T00:03:14;17.00;70.30
37456;DHT22;23316;50.718;7.328;2022-07-01T00:05:42;17.00;70.20
37456;DHT22;23316;50.718;7.328;2022-07-01T00:08:10;17.00;70.10
37456;DHT22;23316;50.718;7.328;2022-07-01T00:10:37;17.10;70.10
37456;DHT22;23316;50.718;7.328;2022-07-01T00:13:05;17.10;69.90
37456;DHT22;23316;50.718;7.328;2022-07-01T00:15:34;17.10;69.50
37456;DHT22;23316;50.718;7.328;2022-07-01T00:18:02;17.10;69.30
37456;DHT22;23316;50.718;7.328;2022-07-01T00:20:30;17.20;69.30
37456;DHT22;23316;50.718;7.328;2022-07-01T00:22:57;17.20;69.00
37456;DHT22;23316;50.718;7.328;2022-07-01T00:25:25;17.30;69.00
37456;DHT22;23316;50.718;7.328;2022-07-01T00:27:52;17.20;68.90
37456;DHT22;23316;50.718;7.328;2022-07-01T00:30:20;17.30;68.80
37456;DHT22;23316;50.718;7.328;2022-07-01T00:32:49;17.30;68.60
37456;DHT22;23316;50.718;7.328;2022-07-01T00:35:19;17.40;68.20
37456;DHT22;23316;50.718;7.328;2022-07-01T00:37:46;17.40;68.00
37456;DHT22;23316;50.718;7.328;2022-07-01T00:40:14;17.40;68.00
37456;DHT22;23316;50.718;7.328;2022-07-01T00:42:42;17.50;68.00
37456;DHT22;23316;50.718;7.328;2022-07-01T00:45:10;17.50;67.90
37456;DHT22;23316;50.718;7.328;2022-07-01T00:47:40;17.50;67.80
37456;DHT22;23316;50.718;7.328;2022-07-01T00:50:12;17.60;67.70
37456;DHT22;23316;50.718;7.328;2022-07-01T00:52:40;17.60;67.50
37456;DHT22;23316;50.718;7.328;2022-07-01T00:55:09;17.60;67.40
37456;DHT22;23316;50.718;7.328;2022-07-01T00:57:38;17.60;67.20
37456;DHT22;23316;50.718;7.328;2022-07-01T01:00:15;17.70;67.10
37456;DHT22;23316;50.718;7.328;2022-07-01T01:02:43;17.70;67.10
37456;DHT22;23316;50.718;7.328;2022-07-01T01:05:12;17.80;66.80
37456;DHT22;23316;50.718;7.328;2022-07-01T01:07:40;17.80;66.50
37456;DHT22;23316;50.718;7.328;2022-07-01T01:10:09;17.80;66.40
37456;DHT22;23316;50.718;7.328;2022-07-01T01:12:37;17.80;67.20
37456;DHT22;23316;50.718;7.328;2022-07-01T01:15:06;17.80;66.40
37456;DHT22;23316;50.718;7.328;2022-07-01T01:17:33;17.80;66.20
37456;DHT22;23316;50.718;7.328;2022-07-01T01:20:01;17.80;66.30
37456;DHT22;23316;50.718;7.328;2022-07-01T01:22:30;17.90;66.40
37456;DHT22;23316;50.718;7.328;2022-07-01T01:24:57;17.80;66.20
37456;DHT22;23316;50.718;7.328;2022-07-01T01:27:25;17.90;66.30
37456;DHT22;23316;50.718;7.328;2022-07-01T01:29:52;17.90;66.30
37456;DHT22;23316;50.718;7.328;2022-07-01T01:32:20;17.90;66.30
37456;DHT22;23316;50.718;7.328;2022-07-01T01:34:47;18.00;66.30
37456;DHT22;23316;50.718;7.328;2022-07-01T01:37:15;18.00;66.20
37456;DHT22;23316;50.718;7.328;2022-07-01T01:39:44;18.00;66.10
37456;DHT22;23316;50.718;7.328;2022-07-01T01:42:12;18.00;66.00
37456;DHT22;23316;50.718;7.328;2022-07-01T01:44:39;18.00;65.70
37456;DHT22;23316;50.718;7.328;2022-07-01T01:47:07;18.00;65.50
37456;DHT22;23316;50.718;7.328;2022-07-01T01:49:34;18.10;65.50
37456;DHT22;23316;50.718;7.328;2022-07-01T01:52:02;18.10;65.40
37456;DHT22;23316;50.718;7.328;2022-07-01T01:54:30;18.10;66.10
37456;DHT22;23316;50.718;7.328;2022-07-01T01:56:59;18.10;65.20
37456;DHT22;23316;50.718;7.328;2022-07-01T01:59:27;18.10;65.10
37456;DHT22;23316;50.718;7.328;2022-07-01T02:01:54;18.10;65.00
37456;DHT22;23316;50.718;7.328;2022-07-01T02:04:22;18.20;64.90
37456;DHT22;23316;50.718;7.328;2022-07-01T02:06:50;18.20;65.00
37456;DHT22;23316;50.718;7.328;2022-07-01T02:09:18;18.20;65.00
37456;DHT22;23316;50.718;7.328;2022-07-01T02:11:45;18.20;65.10
37456;DHT22;23316;50.718;7.328;2022-07-01T02:14:14;18.20;65.00
37456;DHT22;23316;50.718;7.328;2022-07-01T02:16:41;18.20;65.10
37456;DHT22;23316;50.718;7.328;2022-07-01T02:19:09;18.20;65.00
37456;DHT22;23316;50.718;7.328;2022-07-01T02:21:36;18.20;65.00
37456;DHT22;23316;50.718;7.328;2022-07-01T02:24:04;18.30;65.10
37456;DHT22;23316;50.718;7.328;2022-07-01T02:26:32;18.30;64.90
37456;DHT22;23316;50.718;7.328;2022-07-01T02:28:59;18.30;64.70
37456;DHT22;23316;50.718;7.328;2022-07-01T02:31:28;18.30;65.10
37456;DHT22;23316;50.718;7.328;2022-07-01T02:33:55;18.30;64.30
37456;DHT22;23316;50.718;7.328;2022-07-01T02:36:23;18.30;64.00
37456;DHT22;23316;50.718;7.328;2022-07-01T02:38:50;18.30;64.00
37456;DHT22;23316;50.718;7.328;2022-07-01T02:41:18;18.30;63.90
37456;DHT22;23316;50.718;7.328;2022-07-01T02:43:45;18.30;64.00
37456;DHT22;23316;50.718;7.328;2022-07-01T02:46:13;18.30;64.00
37456;DHT22;23316;50.718;7.328;2022-07-01T02:48:42;18.30;64.00
37456;DHT22;23316;50.718;7.328;2022-07-01T02:51:10;18.30;64.00
37456;DHT22;23316;50.718;7.328;2022-07-01T02:53:37;18.30;63.80
37456;DHT22;23316;50.718;7.328;2022-07-01T02:56:05;18.30;63.60
37456;DHT22;23316;50.718;7.328;2022-07-01T02:58:33;18.30;63.50
37456;DHT22;23316;50.718;7.328;2022-07-01T03:01:00;18.30;63.20
37456;DHT22;23316;50.718;7.328;2022-07-01T03:03:28;18.30;63.00
37456;DHT22;23316;50.718;7.328;2022-07-01T03:05:57;18.30;63.10
37456;DHT22;23316;50.718;7.328;2022-07-01T03:08:24;18.20;62.90
37456;DHT22;23316;50.718;7.328;2022-07-01T03:10:52;18.30;62.80
37456;DHT22;23316;50.718;7.328;2022-07-01T03:13:19;18.20;62.80
37456;DHT22;23316;50.718;7.328;2022-07-01T03:15:46;18.20;62.80
37456;DHT22;23316;50.718;7.328;2022-07-01T03:18:14;18.20;62.80
37456;DHT22;23316;50.718;7.328;2022-07-01T03:20:41;18.20;62.70
37456;DHT22;23316;50.718;7.328;2022-07-01T03:23:10;18.20;62.70
37456;DHT22;23316;50.718;7.328;2022-07-01T03:25:38;18.20;62.90
37456;DHT22;23316;50.718;7.328;2022-07-01T03:28:05;18.20;62.90
37456;DHT22;23316;50.718;7.328;2022-07-01T03:30:33;18.20;63.00
37456;DHT22;23316;50.718;7.328;2022-07-01T03:33:00;18.20;63.00
37456;DHT22;23316;50.718;7.328;2022-07-01T03:35:28;18.20;63.00
37456;DHT22;23316;50.718;7.328;2022-07-01T03:38:07;18.20;63.10
37456;DHT22;23316;50.718;7.328;2022-07-01T03:40:36;18.10;62.80
37456;DHT22;23316;50.718;7.328;2022-07-01T03:43:04;18.10;62.60
37456;DHT22;23316;50.718;7.328;2022-07-01T03:45:31;18.20;62.60
37456;DHT22;23316;50.718;7.328;2022-07-01T03:47:59;18.10;62.70
37456;DHT22;23316;50.718;7.328;2022-07-01T03:50:26;18.10;62.90
37456;DHT22;23316;50.718;7.328;2022-07-01T03:52:54;18.10;63.00
37456;DHT22;23316;50.718;7.328;2022-07-01T03:55:41;18.10;63.00
37456;DHT22;23316;50.718;7.328;2022-07-01T03:58:09;18.10;63.10
37456;DHT22;23316;50.718;7.328;2022-07-01T04:00:37;18.10;63.10
37456;DHT22;23316;50.718;7.328;2022-07-01T04:03:07;18.10;63.10
37456;DHT22;23316;50.718;7.328;2022-07-01T04:05:35;18.10;63.20
37456;DHT22;23316;50.718;7.328;2022-07-01T04:08:04;18.10;63.30
37456;DHT22;23316;50.718;7.328;2022-07-01T04:10:33;18.10;63.40
37456;DHT22;23316;50.718;7.328;2022-07-01T04:13:02;18.10;63.30
37456;DHT22;23316;50.718;7.328;2022-07-01T04:15:31;18.10;63.20
37456;DHT22;23316;50.718;7.328;2022-07-01T04:17:58;18.10;63.20
37456;DHT22;23316;50.718;7.328;2022-07-01T04:20:26;18.10;63.30
37456;DHT22;23316;50.718;7.328;2022-07-01T04:22:53;18.10;63.20
37456;DHT22;23316;50.718;7.328;2022-07-01T04:25:21;18.10;62.90
37456;DHT22;23316;50.718;7.328;2022-07-01T04:27:49;18.10;62.80
37456;DHT22;23316;50.718;7.328;2022-07-01T04:30:18;18.10;62.80
37456;DHT22;23316;50.718;7.328;2022-07-01T04:32:45;18.10;63.00
37456;DHT22;23316;50.718;7.328;2022-07-01T04:35:13;18.10;62.90
37456;DHT22;23316;50.718;7.328;2022-07-01T04:37:40;18.10;62.60
37456;DHT22;23316;50.718;7.328;2022-07-01T04:40:08;18.10;62.50
37456;DHT22;23316;50.718;7.328;2022-07-01T04:42:36;18.10;62.30
37456;DHT22;23316;50.718;7.328;2022-07-01T04:45:03;18.10;62.10
37456;DHT22;23316;50.718;7.328;2022-07-01T04:47:32;18.10;62.00
37456;DHT22;23316;50.718;7.328;2022-07-01T04:49:59;18.10;62.10
37456;DHT22;23316;50.718;7.328;2022-07-01T04:52:28;18.10;62.00
37456;DHT22;23316;50.718;7.328;2022-07-01T04:54:55;18.10;61.90
37456;DHT22;23316;50.718;7.328;2022-07-01T04:57:23;18.10;61.70
37456;DHT22;23316;50.718;7.328;2022-07-01T04:59:50;18.10;61.90
37456;DHT22;23316;50.718;7.328;2022-07-01T05:02:18;18.10;62.10
37456;DHT22;23316;50.718;7.328;2022-07-01T05:04:47;18.10;62.10
37456;DHT22;23316;50.718;7.328;2022-07-01T05:07:14;18.10;62.10
37456;DHT22;23316;50.718;7.328;2022-07-01T05:09:55;18.10;61.90
37456;DHT22;23316;50.718;7.328;2022-07-01T05:12:22;18.10;61.80
37456;DHT22;23316;50.718;7.328;2022-07-01T05:14:50;18.10;61.80
37456;DHT22;23316;50.718;7.328;2022-07-01T05:17:18;18.10;61.90
37456;DHT22;23316;50.718;7.328;2022-07-01T05:19:46;18.10;61.60
37456;DHT22;23316;50.718;7.328;2022-07-01T05:22:31;18.10;61.50
37456;DHT22;23316;50.718;7.328;2022-07-01T05:24:59;18.10;61.10
37456;DHT22;23316;50.718;7.328;2022-07-01T05:27:27;18.10;61.10
37456;DHT22;23316;50.718;7.328;2022-07-01T05:29:55;18.10;61.40
37456;DHT22;23316;50.718;7.328;2022-07-01T05:32:22;18.10;61.60
37456;DHT22;23316;50.718;7.328;2022-07-01T05:34:51;18.10;61.80
37456;DHT22;23316;50.718;7.328;2022-07-01T05:37:18;18.20;62.00
37456;DHT22;23316;50.718;7.328;2022-07-01T05:39:48;18.20;61.80
37456;DHT22;23316;50.718;7.328;2022-07-01T05:42:15;18.20;61.50
37456;DHT22;23316;50.718;7.328;2022-07-01T05:44:42;18.20;61.40
37456;DHT22;23316;50.718;7.328;2022-07-01T05:47:10;18.20;61.30
37456;DHT22;23316;50.718;7.328;2022-07-01T05:49:37;18.30;61.20
37456;DHT22;23316;50.718;7.328;2022-07-01T05:52:07;18.30;61.30
37456;DHT22;23316;50.718;7.328;2022-07-01T05:54:35;18.30;61.30
37456;DHT22;23316;50.718;7.328;2022-07-01T05:57:02;18.30;61.40
37456;DHT22;23316;50.718;7.328;2022-07-01T05:59:30;18.30;60.80
37456;DHT22;23316;50.718;7.328;2022-07-01T06:01:57;18.40;60.50
37456;DHT22;23316;50.718;7.328;2022-07-01T06:04:25;18.40;60.30
37456;DHT22;23316;50.718;7.328;2022-07-01T06:06:52;18.40;60.00
37456;DHT22;23316;50.718;7.328;2022-07-01T06:09:21;18.50;60.00
37456;DHT22;23316;50.718;7.328;2022-07-01T06:11:49;18.50;59.80
37456;DHT22;23316;50.718;7.328;2022-07-01T06:14:16;18.50;59.90
37456;DHT22;23316;50.718;7.328;2022-07-01T06:16:43;18.50;60.00
37456;DHT22;23316;50.718;7.328;2022-07-01T06:19:11;18.50;60.00
37456;DHT22;23316;50.718;7.328;2022-07-01T06:21:38;18.60;59.90
37456;DHT22;23316;50.718;7.328;2022-07-01T06:24:06;18.60;59.80
37456;DHT22;23316;50.718;7.328;2022-07-01T06:26:35;18.70;59.50
37456;DHT22;23316;50.718;7.328;2022-07-01T06:29:02;18.70;59.20
37456;DHT22;23316;50.718;7.328;2022-07-01T06:31:29;18.80;59.20
37456;DHT22;23316;50.718;7.328;2022-07-01T06:33:59;18.80;59.30
37456;DHT22;23316;50.718;7.328;2022-07-01T06:36:26;18.90;59.10
37456;DHT22;23316;50.718;7.328;2022-07-01T06:38:54;18.90;58.80
37456;DHT22;23316;50.718;7.328;2022-07-01T06:41:21;18.90;58.70
37456;DHT22;23316;50.718;7.328;2022-07-01T06:43:56;19.00;58.60
37456;DHT22;23316;50.718;7.328;2022-07-01T06:46:24;19.00;58.70
37456;DHT22;23316;50.718;7.328;2022-07-01T06:48:52;19.00;58.60
37456;DHT22;23316;50.718;7.328;2022-07-01T06:51:19;19.00;58.10
37456;DHT22;23316;50.718;7.328;2022-07-01T06:53:47;19.10;58.20
37456;DHT22;23316;50.718;7.328;2022-07-01T06:56:16;19.10;58.50
37456;DHT22;23316;50.718;7.328;2022-07-01T06:58:44;19.10;58.60
37456;DHT22;23316;50.718;7.328;2022-07-01T07:01:13;19.20;58.30
37456;DHT22;23316;50.718;7.328;2022-07-01T07:03:40;19.20;57.50
37456;DHT22;23316;50.718;7.328;2022-07-01T07:06:08;19.20;57.50
37456;DHT22;23316;50.718;7.328;2022-07-01T07:08:35;19.20;57.50
37456;DHT22;23316;50.718;7.328;2022-07-01T07:11:03;19.20;57.50
37456;DHT22;23316;50.718;7.328;2022-07-01T07:13:30;19.20;57.40
37456;DHT22;23316;50.718;7.328;2022-07-01T07:15:57;19.30;57.50
37456;DHT22;23316;50.718;7.328;2022-07-01T07:18:26;19.30;57.50
37456;DHT22;23316;50.718;7.328;2022-07-01T07:20:54;19.30;57.90
37456;DHT22;23316;50.718;7.328;2022-07-01T07:23:21;19.40;57.80
37456;DHT22;23316;50.718;7.328;2022-07-01T07:25:49;19.40;57.50
37456;DHT22;23316;50.718;7.328;2022-07-01T07:28:16;19.40;57.40
37456;DHT22;23316;50.718;7.328;2022-07-01T07:30:44;19.50;57.40
37456;DHT22;23316;50.718;7.328;2022-07-01T07:33:11;19.50;57.40
37456;DHT22;23316;50.718;7.328;2022-07-01T07:35:40;19.60;57.40
37456;DHT22;23316;50.718;7.328;2022-07-01T07:38:08;19.60;57.20
37456;DHT22;23316;50.718;7.328;2022-07-01T07:40:36;19.60;56.90
37456;DHT22;23316;50.718;7.328;2022-07-01T07:43:03;19.60;56.80
37456;DHT22;23316;50.718;7.328;2022-07-01T07:45:33;19.70;56.90
37456;DHT22;23316;50.718;7.328;2022-07-01T07:48:01;19.70;56.90
37456;DHT22;23316;50.718;7.328;2022-07-01T07:50:28;19.70;57.10
37456;DHT22;23316;50.718;7.328;2022-07-01T07:52:58;19.80;57.20
37456;DHT22;23316;50.718;7.328;2022-07-01T07:55:26;19.90;56.90
37456;DHT22;23316;50.718;7.328;2022-07-01T07:57:54;19.90;56.70
37456;DHT22;23316;50.718;7.328;2022-07-01T08:00:21;19.90;56.30
37456;DHT22;23316;50.718;7.328;2022-07-01T08:02:49;19.90;56.00
37456;DHT22;23316;50.718;7.328;2022-07-01T08:05:16;19.90;56.00
37456;DHT22;23316;50.718;7.328;2022-07-01T08:07:44;20.00;56.10
37456;DHT22;23316;50.718;7.328;2022-07-01T08:10:13;20.00;56.10
37456;DHT22;23316;50.718;7.328;2022-07-01T08:12:41;20.00;56.00
37456;DHT22;23316;50.718;7.328;2022-07-01T08:15:09;20.00;55.90
37456;DHT22;23316;50.718;7.328;2022-07-01T08:17:36;20.00;56.00
37456;DHT22;23316;50.718;7.328;2022-07-01T08:20:05;20.10;56.20
37456;DHT22;23316;50.718;7.328;2022-07-01T08:22:33;20.10;55.90
37456;DHT22;23316;50.718;7.328;2022-07-01T08:25:00;20.20;55.90
37456;DHT22;23316;50.718;7.328;2022-07-01T08:27:30;20.20;55.30
37456;DHT22;23316;50.718;7.328;2022-07-01T08:29:57;20.30;55.90
37456;DHT22;23316;50.718;7.328;2022-07-01T08:32:25;20.30;55.50
37456;DHT22;23316;50.718;7.328;2022-07-01T08:34:54;20.40;56.30
37456;DHT22;23316;50.718;7.328;2022-07-01T08:37:21;20.40;55.20
37456;DHT22;23316;50.718;7.328;2022-07-01T08:39:49;20.40;54.70
37456;DHT22;23316;50.718;7.328;2022-07-01T08:42:16;20.40;53.60
37456;DHT22;23316;50.718;7.328;2022-07-01T08:44:45;20.40;53.80
37456;DHT22;23316;50.718;7.328;2022-07-01T08:47:13;20.40;54.50
37456;DHT22;23316;50.718;7.328;2022-07-01T08:49:41;20.40;54.70
37456;DHT22;23316;50.718;7.328;2022-07-01T08:52:08;20.40;54.70
37456;DHT22;23316;50.718;7.328;2022-07-01T08:54:36;20.40;54.20
37456;DHT22;23316;50.718;7.328;2022-07-01T08:57:05;20.40;53.20
37456;DHT22;23316;50.718;7.328;2022-07-01T08:59:33;20.30;53.50
37456;DHT22;23316;50.718;7.328;2022-07-01T09:02:04;20.20;53.30
37456;DHT22;23316;50.718;7.328;2022-07-01T09:04:32;20.20;53.70
37456;DHT22;23316;50.718;7.328;2022-07-01T09:07:03;20.00;53.60
37456;DHT22;23316;50.718;7.328;2022-07-01T09:09:34;20.00;54.10
37456;DHT22;23316;50.718;7.328;2022-07-01T09:12:03;19.90;54.60
37456;DHT22;23316;50.718;7.328;2022-07-01T09:14:33;19.90;54.60
37456;DHT22;23316;50.718;7.328;2022-07-01T09:17:04;19.80;54.70
37456;DHT22;23316;50.718;7.328;2022-07-01T09:19:34;19.80;55.20
37456;DHT22;23316;50.718;7.328;2022-07-01T09:22:03;19.80;55.00
37456;DHT22;23316;50.718;7.328;2022-07-01T09:24:34;19.80;54.90
37456;DHT22;23316;50.718;7.328;2022-07-01T09:27:03;19.80;55.90
37456;DHT22;23316;50.718;7.328;2022-07-01T09:29:36;19.80;54.10
37456;DHT22;23316;50.718;7.328;2022-07-01T09:32:08;19.80;54.60
37456;DHT22;23316;50.718;7.328;2022-07-01T09:34:40;19.90;54.70
37456;DHT22;23316;50.718;7.328;2022-07-01T09:37:11;20.00;54.80
37456;DHT22;23316;50.718;7.328;2022-07-01T09:39:43;20.00;54.80
37456;DHT22;23316;50.718;7.328;2022-07-01T09:42:11;20.10;55.50
37456;DHT22;23316;50.718;7.328;2022-07-01T09:44:51;20.20;55.10
37456;DHT22;23316;50.718;7.328;2022-07-01T09:47:23;20.30;54.10
37456;DHT22;23316;50.718;7.328;2022-07-01T09:49:50;20.40;53.60
37456;DHT22;23316;50.718;7.328;2022-07-01T09:52:18;20.50;53.50
37456;DHT22;23316;50.718;7.328;2022-07-01T09:54:47;20.60;52.40
37456;DHT22;23316;50.718;7.328;2022-07-01T09:57:14;20.70;52.80
37456;DHT22;23316;50.718;7.328;2022-07-01T09:59:42;20.70;52.30
37456;DHT22;23316;50.718;7.328;2022-07-01T10:02:11;20.80;52.50
37456;DHT22;23316;50.718;7.328;2022-07-01T10:04:42;20.90;52.40
37456;DHT22;23316;50.718;7.328;2022-07-01T10:07:26;20.90;52.00
37456;DHT22;23316;50.718;7.328;2022-07-01T10:10:05;21.00;51.30
37456;DHT22;23316;50.718;7.328;2022-07-01T10:12:39;21.00;50.90
37456;DHT22;23316;50.718;7.328;2022-07-01T10:15:10;21.10;51.10
37456;DHT22;23316;50.718;7.328;2022-07-01T10:17:43;21.10;50.70
37456;DHT22;23316;50.718;7.328;2022-07-01T10:20:14;21.10;50.10
37456;DHT22;23316;50.718;7.328;2022-07-01T10:22:44;21.10;50.70
37456;DHT22;23316;50.718;7.328;2022-07-01T10:25:38;21.20;51.20
37456;DHT22;23316;50.718;7.328;2022-07-01T10:28:16;21.20;51.10
37456;DHT22;23316;50.718;7.328;2022-07-01T10:30:58;21.30;50.60
37456;DHT22;23316;50.718;7.328;2022-07-01T10:33:45;21.30;49.90
37456;DHT22;23316;50.718;7.328;2022-07-01T10:36:17;21.30;49.50
37456;DHT22;23316;50.718;7.328;2022-07-01T10:39:16;21.30;49.20
37456;DHT22;23316;50.718;7.328;2022-07-01T10:41:58;21.30;49.00
37456;DHT22;23316;50.718;7.328;2022-07-01T10:44:27;21.30;49.50
37456;DHT22;23316;50.718;7.328;2022-07-01T10:47:01;21.30;49.70
37456;DHT22;23316;50.718;7.328;2022-07-01T10:49:54;21.30;48.60
37456;DHT22;23316;50.718;7.328;2022-07-01T10:52:24;21.30;48.20
37456;DHT22;23316;50.718;7.328;2022-07-01T10:54:53;21.30;48.00
37456;DHT22;23316;50.718;7.328;2022-07-01T10:57:27;21.30;48.60
37456;DHT22;23316;50.718;7.328;2022-07-01T10:59:56;21.30;48.50
37456;DHT22;23316;50.718;7.328;2022-07-01T11:02:44;21.40;49.00
37456;DHT22;23316;50.718;7.328;2022-07-01T11:05:13;21.50;48.50
37456;DHT22;23316;50.718;7.328;2022-07-01T11:07:44;21.50;47.80
37456;DHT22;23316;50.718;7.328;2022-07-01T11:10:15;21.60;48.50
37456;DHT22;23316;50.718;7.328;2022-07-01T11:12:43;21.60;48.10
37456;DHT22;23316;50.718;7.328;2022-07-01T11:15:14;21.60;46.90
37456;DHT22;23316;50.718;7.328;2022-07-01T11:17:44;21.60;46.00
37456;DHT22;23316;50.718;7.328;2022-07-01T11:20:12;21.60;47.20
37456;DHT22;23316;50.718;7.328;2022-07-01T11:22:40;21.70;47.30
37456;DHT22;23316;50.718;7.328;2022-07-01T11:25:11;21.70;45.70
37456;DHT22;23316;50.718;7.328;2022-07-01T11:27:39;21.70;46.20
37456;DHT22;23316;50.718;7.328;2022-07-01T11:30:10;21.80;45.50
37456;DHT22;23316;50.718;7.328;2022-07-01T11:32:39;21.80;45.50
37456;DHT22;23316;50.718;7.328;2022-07-01T11:35:12;21.80;46.00
37456;DHT22;23316;50.718;7.328;2022-07-01T11:38:04;21.90;45.50
37456;DHT22;23316;50.718;7.328;2022-07-01T11:40:51;21.90;46.40
37456;DHT22;23316;50.718;7.328;2022-07-01T11:43:21;21.90;46.40
37456;DHT22;23316;50.718;7.328;2022-07-01T11:45:49;22.00;47.30
37456;DHT22;23316;50.718;7.328;2022-07-01T11:48:28;22.00;46.90
37456;DHT22;23316;50.718;7.328;2022-07-01T11:50:57;22.10;46.60
37456;DHT22;23316;50.718;7.328;2022-07-01T11:53:25;22.10;45.20
37456;DHT22;23316;50.718;7.328;2022-07-01T11:55:54;22.10;45.30
37456;DHT22;23316;50.718;7.328;2022-07-01T11:58:21;22.10;46.00
37456;DHT22;23316;50.718;7.328;2022-07-01T12:00:49;22.00;46.10
37456;DHT22;23316;50.718;7.328;2022-07-01T12:03:31;22.00;46.20
37456;DHT22;23316;50.718;7.328;2022-07-01T12:05:59;22.00;45.30
37456;DHT22;23316;50.718;7.328;2022-07-01T12:08:26;22.00;46.10
37456;DHT22;23316;50.718;7.328;2022-07-01T12:10:55;22.00;46.70
37456;DHT22;23316;50.718;7.328;2022-07-01T12:13:26;22.10;45.30
37456;DHT22;23316;50.718;7.328;2022-07-01T12:15:54;22.10;45.00
37456;DHT22;23316;50.718;7.328;2022-07-01T12:18:21;22.10;43.80
37456;DHT22;23316;50.718;7.328;2022-07-01T12:20:50;22.20;44.60
37456;DHT22;23316;50.718;7.328;2022-07-01T12:23:20;22.10;45.10
37456;DHT22;23316;50.718;7.328;2022-07-01T12:25:49;22.20;45.20
37456;DHT22;23316;50.718;7.328;2022-07-01T12:28:29;22.20;45.40
37456;DHT22;23316;50.718;7.328;2022-07-01T12:31:04;22.20;44.70
37456;DHT22;23316;50.718;7.328;2022-07-01T12:33:37;22.20;45.90
37456;DHT22;23316;50.718;7.328;2022-07-01T12:36:07;22.20;45.50
37456;DHT22;23316;50.718;7.328;2022-07-01T12:38:34;22.20;45.50
37456;DHT22;23316;50.718;7.328;2022-07-01T12:41:02;22.10;45.00
37456;DHT22;23316;50.718;7.328;2022-07-01T12:43:32;22.00;45.10
37456;DHT22;23316;50.718;7.328;2022-07-01T12:46:03;21.90;45.40
37456;DHT22;23316;50.718;7.328;2022-07-01T12:48:48;21.80;45.50
37456;DHT22;23316;50.718;7.328;2022-07-01T12:51:16;21.80;45.20
37456;DHT22;23316;50.718;7.328;2022-07-01T12:53:43;21.80;45.30
37456;DHT22;23316;50.718;7.328;2022-07-01T12:56:22;21.80;46.40
37456;DHT22;23316;50.718;7.328;2022-07-01T12:58:51;21.80;44.60
37456;DHT22;23316;50.718;7.328;2022-07-01T13:01:19;21.80;44.90
37456;DHT22;23316;50.718;7.328;2022-07-01T13:03:47;21.80;45.00
37456;DHT22;23316;50.718;7.328;2022-07-01T13:06:15;21.80;44.80
37456;DHT22;23316;50.718;7.328;2022-07-01T13:08:43;21.90;44.60
37456;DHT22;23316;50.718;7.328;2022-07-01T13:11:10;21.90;45.00
37456;DHT22;23316;50.718;7.328;2022-07-01T13:13:38;22.00;45.70
37456;DHT22;23316;50.718;7.328;2022-07-01T13:16:07;22.10;45.90
37456;DHT22;23316;50.718;7.328;2022-07-01T13:18:34;22.20;45.70
37456;DHT22;23316;50.718;7.328;2022-07-01T13:21:03;22.30;45.70
37456;DHT22;23316;50.718;7.328;2022-07-01T13:23:30;22.40;45.80
37456;DHT22;23316;50.718;7.328;2022-07-01T13:25:58;22.40;45.40
37456;DHT22;23316;50.718;7.328;2022-07-01T13:28:25;22.50;45.20
37456;DHT22;23316;50.718;7.328;2022-07-01T13:30:53;22.60;45.20
37456;DHT22;23316;50.718;7.328;2022-07-01T13:33:21;22.70;44.60
37456;DHT22;23316;50.718;7.328;2022-07-01T13:35:49;22.80;44.90
37456;DHT22;23316;50.718;7.328;2022-07-01T13:38:16;22.90;45.10
37456;DHT22;23316;50.718;7.328;2022-07-01T13:40:44;22.90;45.20
37456;DHT22;23316;50.718;7.328;2022-07-01T13:43:11;23.10;43.70
37456;DHT22;23316;50.718;7.328;2022-07-01T13:45:42;23.10;42.60
37456;DHT22;23316;50.718;7.328;2022-07-01T13:48:09;23.00;42.40
37456;DHT22;23316;50.718;7.328;2022-07-01T13:50:38;23.00;42.80
37456;DHT22;23316;50.718;7.328;2022-07-01T13:53:05;23.00;43.20
37456;DHT22;23316;50.718;7.328;2022-07-01T13:55:33;23.10;43.40
37456;DHT22;23316;50.718;7.328;2022-07-01T13:58:00;23.10;43.30
37456;DHT22;23316;50.718;7.328;2022-07-01T14:00:28;23.00;41.00
37456;DHT22;23316;50.718;7.328;2022-07-01T14:02:55;22.90;40.80
37456;DHT22;23316;50.718;7.328;2022-07-01T14:05:23;22.80;42.00
37456;DHT22;23316;50.718;7.328;2022-07-01T14:07:52;22.70;42.20
37456;DHT22;23316;50.718;7.328;2022-07-01T14:10:19;22.60;41.90
37456;DHT22;23316;50.718;7.328;2022-07-01T14:12:47;22.60;42.30
37456;DHT22;23316;50.718;7.328;2022-07-01T14:15:14;22.50;42.00
37456;DHT22;23316;50.718;7.328;2022-07-01T14:17:41;22.60;42.60
37456;DHT22;23316;50.718;7.328;2022-07-01T14:20:11;22.60;41.60
37456;DHT22;23316;50.718;7.328;2022-07-01T14:22:38;22.60;41.60
37456;DHT22;23316;50.718;7.328;2022-07-01T14:25:08;22.60;42.20
37456;DHT22;23316;50.718;7.328;2022-07-01T14:27:35;22.60;42.40
37456;DHT22;23316;50.718;7.328;2022-07-01T14:30:04;22.70;42.90
37456;DHT22;23316;50.718;7.328;2022-07-01T14:32:33;22.80;42.80
37456;DHT22;23316;50.718;7.328;2022-07-01T14:35:01;22.90;41.70
37456;DHT22;23316;50.718;7.328;2022-07-01T14:37:28;22.90;43.30
37456;DHT22;23316;50.718;7.328;2022-07-01T14:39:55;23.00;44.00
37456;DHT22;23316;50.718;7.328;2022-07-01T14:42:27;23.10;43.20
37456;DHT22;23316;50.718;7.328;2022-07-01T14:44:55;23.10;43.20
37456;DHT22;23316;50.718;7.328;2022-07-01T14:47:23;23.20;43.20
37456;DHT22;23316;50.718;7.328;2022-07-01T14:49:50;23.30;42.90
37456;DHT22;23316;50.718;7.328;2022-07-01T14:52:19;23.30;42.50
37456;DHT22;23316;50.718;7.328;2022-07-01T14:54:47;23.30;42.30
37456;DHT22;23316;50.718;7.328;2022-07-01T14:57:16;23.40;42.40
37456;DHT22;23316;50.718;7.328;2022-07-01T14:59:45;23.40;42.30
37456;DHT22;23316;50.718;7.328;2022-07-01T15:02:12;23.40;42.30
37456;DHT22;23316;50.718;7.328;2022-07-01T15:04:40;23.40;41.80
37456;DHT22;23316;50.718;7.328;2022-07-01T15:07:08;23.40;42.00
37456;DHT22;23316;50.718;7.328;2022-07-01T15:09:35;23.40;40.50
37456;DHT22;23316;50.718;7.328;2022-07-01T15:12:03;23.30;40.60
37456;DHT22;23316;50.718;7.328;2022-07-01T15:14:30;23.20;41.00
37456;DHT22;23316;50.718;7.328;2022-07-01T15:16:59;23.20;41.80
37456;DHT22;23316;50.718;7.328;2022-07-01T15:19:27;23.10;41.70
37456;DHT22;23316;50.718;7.328;2022-07-01T15:21:55;23.10;41.80
37456;DHT22;23316;50.718;7.328;2022-07-01T15:24:23;23.10;42.10
37456;DHT22;23316;50.718;7.328;2022-07-01T15:26:52;23.00;42.80
37456;DHT22;23316;50.718;7.328;2022-07-01T15:29:19;23.00;41.80
37456;DHT22;23316;50.718;7.328;2022-07-01T15:31:47;22.90;41.60
37456;DHT22;23316;50.718;7.328;2022-07-01T15:34:16;22.90;41.40
37456;DHT22;23316;50.718;7.328;2022-07-01T15:36:44;22.90;41.90
37456;DHT22;23316;50.718;7.328;2022-07-01T15:39:12;22.80;41.30
37456;DHT22;23316;50.718;7.328;2022-07-01T15:41:39;22.80;40.80